• Join FlightAware (Why Join?)
  • Login
  • US Flag 
08:30AM EST


 

Airport Tracker/Info


-or-


 

Live Flight TrackerFlight Track Log ✈ AAL1805 ✈ 29-Apr-2013 ✈ KMIA - TNCA / AUA

Flight Track Log - Related Links

Times and Time Zones

All times are in EDT time to prevent confusion due to time zone crossing. See the AAL1805 flight status page for this flight to view local times or setup timezone preferences in your user account.

Time Position Orientation Groundspeed Altitude Reporting Facility
EDT Latitude Longitude Course Direction KTS MPH feet Rate Location/Type
07:29PM 25.8020 -80.2750 90° East 170 196 600  Level FlightAware
07:29PM 25.7940 -80.2490 109° East 181 208 2,300 2,460 Climbing FlightAware
07:30PM 25.7850 -80.2240 112° Southeast 232 267 2,900 2,280 Climbing FlightAware
07:30PM 25.7710 -80.1860 112° Southeast 267 307 4,400 2,880 Climbing FlightAware
07:30PM 25.7600 -80.1690 126° Southeast 271 312 5,100 2,400 Climbing FlightAware
07:31PM 25.7510 -80.1630 149° Southeast 271 312 5,400 1,920 Climbing FlightAware
07:31PM 25.7320 -80.1570 164° South 272 313 5,900 1,440 Climbing FlightAware
07:31PM 25.6960 -80.1610 186° South 273 314 6,500 960 Climbing FlightAware
07:32PM 25.6640 -80.1660 188° South 280 322 6,800 540 Climbing FlightAware
07:32PM 25.6260 -80.1690 184° South 278 320 7,000 180 Climbing FlightAware
07:33PM 25.5880 -80.1720 184° South 277 319 7,000 600 Level FlightAware
07:33PM 25.5550 -80.1670 172° South 274 315 7,600 2,100 Climbing FlightAware
07:33PM 25.5380 -80.1570 152° Southeast 285 328 8,400 3,360 Climbing FlightAware
07:34PM 25.4930 -80.1240 146° Southeast 295 339 10,700 3,120 Climbing FlightAware
07:35PM 25.4350 -80.0830 147° Southeast 323 372 12,900 3,420 Climbing FlightAware
07:35PM 25.3830 -80.0470 148° Southeast 324 373 15,600 3,420 Climbing FlightAware
07:36PM 25.3250 -80.0070 148° Southeast 330 380 17,800 2,820 Climbing FlightAware
07:37PM 25.2750 -79.9720 148° Southeast 345 397 19,600 2,280 Climbing FlightAware
07:38PM 25.2220 -79.9330 146° Southeast 352 405 20,900 2,040 Climbing FlightAware
07:38PM 25.1550 -79.8860 148° Southeast 380 437 22,500 1,860 Climbing FlightAware
07:39PM 25.0960 -79.8430 147° Southeast 392 451 23,600 1,620 Climbing FlightAware
07:40PM 25.0300 -79.7960 147° Southeast 411 473 24,700 1,560 Climbing FlightAware
07:40PM 24.9780 -79.7590 147° Southeast 425 489 25,600 2,040 Climbing FlightAware
07:41PM 24.8860 -79.6940 147° Southeast 440 506 27,600 1,800 Climbing FlightAware
07:42PM 24.8070 -79.6370 147° Southeast 461 531 28,500 1,440 Climbing FlightAware
07:42PM 24.7340 -79.5860 148° Southeast 459 528 29,700 1,740 Climbing FlightAware
07:43PM 24.6520 -79.5280 147° Southeast 467 537 31,000 1,620 Climbing FlightAware
07:44PM 24.5770 -79.4750 147° Southeast 481 554 32,000 1,320 Climbing FlightAware
07:45PM 24.5050 -79.4240 147° Southeast 483 556 32,800 1,080 Climbing FlightAware
07:45PM 24.4170 -79.3620 147° Southeast 500 575 33,600 1,200 Climbing FlightAware
07:46PM 24.3370 -79.3050 147° Southeast 499 574 34,500 1,020 Climbing FlightAware
07:47PM 24.2310 -79.2290 147° Southeast 497 572 35,300 840 Climbing FlightAware
07:49PM 24.0020 -79.0710 148° Southeast 38,400 1,560 Climbing FlightAware
07:56PM 23.3451 -78.5033 142° Southeast  Level FlightAware Approximate
07:57PM 23.2468 -78.4196 142° Southeast  Level FlightAware Approximate
07:58PM 23.1485 -78.3361 142° Southeast  Level FlightAware Approximate
07:59PM 23.0501 -78.2526 142° Southeast  Level FlightAware Approximate
08:00PM 22.9517 -78.1693 142° Southeast  Level FlightAware Approximate
08:01PM 22.8533 -78.0862 142° Southeast  Level FlightAware Approximate
08:02PM 22.7547 -78.0031 142° Southeast  Level FlightAware Approximate
08:03PM 22.6562 -77.9202 142° Southeast  Level FlightAware Approximate
08:04PM 22.5576 -77.8374 142° Southeast  Level FlightAware Approximate
08:05PM 22.4590 -77.7547 142° Southeast  Level FlightAware Approximate
08:06PM 22.3603 -77.6721 142° Southeast  Level FlightAware Approximate
08:07PM 22.2616 -77.5896 142° Southeast  Level FlightAware Approximate
08:08PM 22.1629 -77.5073 142° Southeast  Level FlightAware Approximate
08:09PM 22.0641 -77.4251 142° Southeast  Level FlightAware Approximate
08:10PM 21.9653 -77.3430 142° Southeast  Level FlightAware Approximate
08:11PM 21.8664 -77.2610 142° Southeast  Level FlightAware Approximate
08:12PM 21.7675 -77.1791 142° Southeast  Level FlightAware Approximate
08:13PM 21.6685 -77.0973 142° Southeast  Level FlightAware Approximate
08:14PM 21.5695 -77.0156 143° Southeast  Level FlightAware Approximate
08:15PM 21.4705 -76.9341 143° Southeast  Level FlightAware Approximate
08:16PM 21.3714 -76.8527 143° Southeast  Level FlightAware Approximate
08:17PM 21.2723 -76.7713 143° Southeast  Level FlightAware Approximate
08:18PM 21.1732 -76.6901 143° Southeast  Level FlightAware Approximate
08:19PM 21.0740 -76.6090 143° Southeast  Level FlightAware Approximate
08:20PM 20.9748 -76.5280 143° Southeast  Level FlightAware Approximate
08:21PM 20.8755 -76.4471 143° Southeast  Level FlightAware Approximate
08:22PM 20.7762 -76.3663 143° Southeast  Level FlightAware Approximate
08:23PM 20.6768 -76.2856 143° Southeast  Level FlightAware Approximate
08:24PM 20.5775 -76.2050 143° Southeast  Level FlightAware Approximate
08:25PM 20.4781 -76.1246 143° Southeast  Level FlightAware Approximate
08:26PM 20.3786 -76.0442 143° Southeast  Level FlightAware Approximate
08:27PM 20.2791 -75.9640 143° Southeast  Level FlightAware Approximate
08:28PM 20.1796 -75.8838 143° Southeast  Level FlightAware Approximate
08:29PM 20.0800 -75.8037 143° Southeast  Level FlightAware Approximate
08:30PM 19.9804 -75.7238 143° Southeast  Level FlightAware Approximate
08:31PM 19.8808 -75.6439 143° Southeast  Level FlightAware Approximate
08:32PM 19.7811 -75.5642 143° Southeast  Level FlightAware Approximate
08:33PM 19.6814 -75.4845 143° Southeast  Level FlightAware Approximate
08:34PM 19.5817 -75.4050 143° Southeast  Level FlightAware Approximate
08:35PM 19.4819 -75.3255 143° Southeast  Level FlightAware Approximate
08:36PM 19.3821 -75.2461 143° Southeast  Level FlightAware Approximate
08:37PM 19.2822 -75.1669 143° Southeast  Level FlightAware Approximate
08:38PM 19.1823 -75.0877 143° Southeast  Level FlightAware Approximate
08:39PM 19.0824 -75.0086 143° Southeast  Level FlightAware Approximate
08:40PM 18.9825 -74.9297 143° Southeast  Level FlightAware Approximate
08:41PM 18.8825 -74.8508 143° Southeast  Level FlightAware Approximate
08:42PM 18.7825 -74.7720 143° Southeast  Level FlightAware Approximate
08:43PM 18.6824 -74.6934 143° Southeast  Level FlightAware Approximate
08:44PM 18.5821 -74.6150 143° Southeast  Level FlightAware Approximate
08:45PM 18.4819 -74.5366 143° Southeast  Level FlightAware Approximate
08:46PM 18.3816 -74.4584 143° Southeast  Level FlightAware Approximate
08:47PM 18.2813 -74.3802 144° Southeast  Level FlightAware Approximate
08:48PM 18.1810 -74.3022 144° Southeast  Level FlightAware Approximate
08:49PM 18.0807 -74.2242 144° Southeast  Level FlightAware Approximate
08:50PM 17.9803 -74.1463 144° Southeast  Level FlightAware Approximate
08:51PM 17.8798 -74.0686 144° Southeast  Level FlightAware Approximate
08:52PM 17.7794 -73.9909 144° Southeast  Level FlightAware Approximate
08:53PM 17.6789 -73.9131 143° Southeast  Level FlightAware Approximate
08:54PM 17.5798 -73.8337 143° Southeast  Level FlightAware Approximate
08:55PM 17.4806 -73.7544 143° Southeast  Level FlightAware Approximate
08:56PM 17.3813 -73.6752 143° Southeast  Level FlightAware Approximate
08:57PM 17.2821 -73.5960 143° Southeast  Level FlightAware Approximate
08:58PM 17.1828 -73.5170 143° Southeast  Level FlightAware Approximate
08:59PM 17.0834 -73.4380 143° Southeast  Level FlightAware Approximate
09:00PM 16.9841 -73.3591 143° Southeast  Level FlightAware Approximate
09:01PM 16.8847 -73.2803 143° Southeast  Level FlightAware Approximate
09:02PM 16.7853 -73.2015 143° Southeast  Level FlightAware Approximate
09:03PM 16.6845 -73.1247 144° Southeast  Level FlightAware Approximate
09:04PM 16.5837 -73.0481 144° Southeast  Level FlightAware Approximate
09:05PM 16.4828 -72.9715 144° Southeast  Level FlightAware Approximate
09:06PM 16.3819 -72.8950 144° Southeast  Level FlightAware Approximate
09:07PM 16.2810 -72.8186 144° Southeast  Level FlightAware Approximate
09:08PM 16.1800 -72.7422 144° Southeast  Level FlightAware Approximate
09:09PM 16.0791 -72.6660 144° Southeast  Level FlightAware Approximate
09:10PM 15.9781 -72.5898 144° Southeast  Level FlightAware Approximate
09:11PM 15.8770 -72.5137 144° Southeast  Level FlightAware Approximate
09:12PM 15.7760 -72.4377 144° Southeast  Level FlightAware Approximate
09:13PM 15.6749 -72.3617 144° Southeast  Level FlightAware Approximate
09:14PM 15.5738 -72.2858 144° Southeast  Level FlightAware Approximate
09:15PM 15.4727 -72.2100 144° Southeast  Level FlightAware Approximate
09:16PM 15.3715 -72.1343 144° Southeast  Level FlightAware Approximate
09:17PM 15.2703 -72.0586 144° Southeast  Level FlightAware Approximate
09:18PM 15.1691 -71.9830 144° Southeast  Level FlightAware Approximate
09:19PM 15.0679 -71.9075 144° Southeast  Level FlightAware Approximate
09:20PM 14.9666 -71.8320 144° Southeast  Level FlightAware Approximate
09:21PM 14.8653 -71.7567 144° Southeast  Level FlightAware Approximate
09:22PM 14.7641 -71.6813 143° Southeast  Level FlightAware Approximate
09:23PM 14.6644 -71.6037 143° Southeast  Level FlightAware Approximate
09:24PM 14.5647 -71.5262 143° Southeast  Level FlightAware Approximate
09:25PM 14.4650 -71.4488 145° Southeast  Level FlightAware Approximate
09:26PM 14.3631 -71.3745 145° Southeast  Level FlightAware Approximate
09:27PM 14.2611 -71.3003 145° Southeast  Level FlightAware Approximate
09:28PM 14.1591 -71.2262 145° Southeast  Level FlightAware Approximate
09:29PM 14.0528 -71.1597 154° Southeast  Level FlightAware Approximate
09:30PM 13.9541 -71.0820 140° Southeast  Level FlightAware Approximate
09:31PM 13.8516 -71.0093 149° Southeast  Level FlightAware Approximate
09:32PM 13.7476 -70.9386 143° Southeast  Level FlightAware Approximate
09:33PM 13.6485 -70.8607 143° Southeast  Level FlightAware Approximate
09:34PM 13.5493 -70.7828 144° Southeast  Level FlightAware Approximate
09:35PM 13.4486 -70.7071 144° Southeast  Level FlightAware Approximate
09:36PM 13.3478 -70.6315 144° Southeast  Level FlightAware Approximate
09:37PM 13.2470 -70.5560 144° Southeast  Level FlightAware Approximate
09:38PM 13.1461 -70.4807 147° Southeast  Level FlightAware Approximate
09:39PM 13.0414 -70.4109 147° Southeast  Level FlightAware Approximate
09:40PM 12.9406 -70.3358 142° Southeast  Level FlightAware Approximate
09:41PM 12.8422 -70.2571 142° Southeast  Level FlightAware Approximate
09:42PM 12.7417 -70.1813 144° Southeast  Level FlightAware Approximate
09:43PM 12.6404 -70.1071 136° Southeast  Level FlightAware Approximate
09:44PM 12.5377 -70.0355 154° Southeast  Level FlightAware Approximate